Amana, Iowa
Current Conditions -  °F | °C
As of 4:52 AM on Friday 19 Dec 2014 (Local Time) from KCID Reporting Station
Haze Haze  
Wind Chill: 24°   Ceiling: 7500
Heat Index: 24°   Visibility: 6mi
Dew Point: 20°   Wind: 3mph
Humidity: 84%   Direction: 20°NNE
Pressure: 30.26"   Gusts: NA
Location:  41.8°N, 91.87°W
Report Text: KCID 191052Z 02003KT 6SM BR FEW047 OVC075 M04/M07 A3026 RMK AO2 SLP261 T10441067 $
Loading
Personal Weather Stations






























Interactive Weather Map New forecast layout! Learn more

10-Day Weather Forecast

Advertisements
Track Severe Weather on mobile